sensor_id;sensor_type;location;lat;lon;timestamp;pressure;altitude;pressure_sealevel;temperature;humidity
75549;BME280;64133;56.002;37.208;2023-07-16T00:02:59;98861.89;;;13.95;86.67
75549;BME280;64133;56.002;37.208;2023-07-16T00:08:04;98869.48;;;13.90;86.91
75549;BME280;64133;56.002;37.208;2023-07-16T00:13:09;98860.36;;;13.88;87.09
75549;BME280;64133;56.002;37.208;2023-07-16T00:18:14;98860.36;;;13.88;87.40
75549;BME280;64133;56.002;37.208;2023-07-16T00:23:18;98859.88;;;13.85;87.62
75549;BME280;64133;56.002;37.208;2023-07-16T00:28:23;98864.48;;;13.82;87.82
75549;BME280;64133;56.002;37.208;2023-07-16T00:33:28;98859.49;;;13.79;87.96
75549;BME280;64133;56.002;37.208;2023-07-16T00:38:32;98861.29;;;13.75;88.29
75549;BME280;64133;56.002;37.208;2023-07-16T00:43:37;98857.52;;;13.77;88.44
75549;BME280;64133;56.002;37.208;2023-07-16T00:48:42;98861.81;;;13.78;88.48
75549;BME280;64133;56.002;37.208;2023-07-16T00:53:47;98854.53;;;13.76;88.43
75549;BME280;64133;56.002;37.208;2023-07-16T00:58:52;98859.64;;;13.74;88.47
75549;BME280;64133;56.002;37.208;2023-07-16T01:03:56;98861.46;;;13.73;88.60
75549;BME280;64133;56.002;37.208;2023-07-16T01:09:03;98864.91;;;13.70;88.65
75549;BME280;64133;56.002;37.208;2023-07-16T01:14:08;98862.11;;;13.67;88.76
75549;BME280;64133;56.002;37.208;2023-07-16T01:19:12;98871.67;;;13.64;88.85
75549;BME280;64133;56.002;37.208;2023-07-16T01:29:52;98877.60;;;13.62;88.94
75549;BME280;64133;56.002;37.208;2023-07-16T01:34:56;98884.09;;;13.64;88.94
75549;BME280;64133;56.002;37.208;2023-07-16T01:40:01;98885.55;;;13.62;88.93
75549;BME280;64133;56.002;37.208;2023-07-16T01:45:07;98888.16;;;13.58;88.95
75549;BME280;64133;56.002;37.208;2023-07-16T01:50:12;98888.16;;;13.58;88.88
75549;BME280;64133;56.002;37.208;2023-07-16T01:55:17;98888.30;;;13.52;89.04
75549;BME280;64133;56.002;37.208;2023-07-16T02:00:21;98894.42;;;13.53;89.11
75549;BME280;64133;56.002;37.208;2023-07-16T02:05:26;98896.55;;;13.49;89.29
75549;BME280;64133;56.002;37.208;2023-07-16T02:10:31;98896.71;;;13.48;89.51
75549;BME280;64133;56.002;37.208;2023-07-16T02:15:36;98897.87;;;13.49;89.54
75549;BME280;64133;56.002;37.208;2023-07-16T02:20:40;98903.69;;;13.53;89.60
75549;BME280;64133;56.002;37.208;2023-07-16T02:25:45;98906.69;;;13.58;89.59
75549;BME280;64133;56.002;37.208;2023-07-16T02:30:50;98910.05;;;13.64;89.54
75549;BME280;64133;56.002;37.208;2023-07-16T02:35:55;98918.02;;;13.68;89.52
75549;BME280;64133;56.002;37.208;2023-07-16T02:41:00;98914.93;;;13.77;89.36
75549;BME280;64133;56.002;37.208;2023-07-16T02:46:05;98898.83;;;13.70;89.30
75549;BME280;64133;56.002;37.208;2023-07-16T02:51:09;98914.27;;;13.79;89.42
75549;BME280;64133;56.002;37.208;2023-07-16T02:56:14;98914.78;;;13.82;89.27
75549;BME280;64133;56.002;37.208;2023-07-16T03:01:19;98909.08;;;13.99;89.15
75549;BME280;64133;56.002;37.208;2023-07-16T03:06:23;98917.06;;;14.07;88.94
75549;BME280;64133;56.002;37.208;2023-07-16T03:11:28;98915.16;;;14.30;88.44
75549;BME280;64133;56.002;37.208;2023-07-16T03:16:33;98921.83;;;14.42;88.03
75549;BME280;64133;56.002;37.208;2023-07-16T03:21:38;98928.42;;;14.80;87.50
75549;BME280;64133;56.002;37.208;2023-07-16T03:26:43;98938.88;;;14.94;86.73
75549;BME280;64133;56.002;37.208;2023-07-16T03:31:47;98943.32;;;14.77;86.53
75549;BME280;64133;56.002;37.208;2023-07-16T03:36:52;98943.11;;;14.67;86.92
75549;BME280;64133;56.002;37.208;2023-07-16T03:41:57;98946.23;;;14.54;87.03
75549;BME280;64133;56.002;37.208;2023-07-16T03:47:02;98951.07;;;14.67;87.23
75549;BME280;64133;56.002;37.208;2023-07-16T03:52:07;98945.44;;;14.66;86.97
75549;BME280;64133;56.002;37.208;2023-07-16T03:57:12;98949.08;;;14.61;87.22
75549;BME280;64133;56.002;37.208;2023-07-16T04:02:17;98952.73;;;14.64;87.15
75549;BME280;64133;56.002;37.208;2023-07-16T04:07:21;98958.89;;;14.72;87.01
75549;BME280;64133;56.002;37.208;2023-07-16T04:12:26;98959.06;;;14.83;86.46
75549;BME280;64133;56.002;37.208;2023-07-16T04:17:31;98962.74;;;14.90;86.59
75549;BME280;64133;56.002;37.208;2023-07-16T04:22:36;98969.04;;;15.01;86.13
75549;BME280;64133;56.002;37.208;2023-07-16T04:27:40;98968.90;;;15.03;86.19
75549;BME280;64133;56.002;37.208;2023-07-16T04:32:45;98964.91;;;14.99;86.19
75549;BME280;64133;56.002;37.208;2023-07-16T04:37:50;98970.22;;;14.99;86.14
75549;BME280;64133;56.002;37.208;2023-07-16T04:42:55;98963.61;;;15.15;85.74
75549;BME280;64133;56.002;37.208;2023-07-16T04:47:59;98972.39;;;15.12;85.58
75549;BME280;64133;56.002;37.208;2023-07-16T04:53:04;98967.56;;;15.19;85.68
75549;BME280;64133;56.002;37.208;2023-07-16T04:58:09;98974.20;;;15.23;85.16
75549;BME280;64133;56.002;37.208;2023-07-16T05:03:13;98969.23;;;15.37;84.79
75549;BME280;64133;56.002;37.208;2023-07-16T05:08:18;98977.34;;;15.15;84.93
75549;BME280;64133;56.002;37.208;2023-07-16T05:13:23;98976.88;;;15.52;84.97
75549;BME280;64133;56.002;37.208;2023-07-16T05:18:28;98976.72;;;15.66;84.42
75549;BME280;64133;56.002;37.208;2023-07-16T05:23:32;98981.38;;;15.72;83.88
75549;BME280;64133;56.002;37.208;2023-07-16T05:28:37;98991.97;;;15.76;83.69
75549;BME280;64133;56.002;37.208;2023-07-16T05:33:42;98989.46;;;15.99;83.20
75549;BME280;64133;56.002;37.208;2023-07-16T05:38:47;98988.73;;;16.21;82.93
75549;BME280;64133;56.002;37.208;2023-07-16T05:43:51;98995.31;;;16.42;82.55
75549;BME280;64133;56.002;37.208;2023-07-16T05:48:56;99010.58;;;16.44;82.37
75549;BME280;64133;56.002;37.208;2023-07-16T05:54:01;99013.46;;;16.30;82.11
75549;BME280;64133;56.002;37.208;2023-07-16T05:59:05;99010.65;;;16.19;82.38
75549;BME280;64133;56.002;37.208;2023-07-16T06:04:10;98999.56;;;16.59;81.73
75549;BME280;64133;56.002;37.208;2023-07-16T06:09:15;99011.26;;;16.46;81.37
75549;BME280;64133;56.002;37.208;2023-07-16T06:14:20;99005.20;;;16.60;81.64
75549;BME280;64133;56.002;37.208;2023-07-16T06:19:24;99012.19;;;16.57;81.45
75549;BME280;64133;56.002;37.208;2023-07-16T06:24:29;99013.95;;;16.81;81.32
75549;BME280;64133;56.002;37.208;2023-07-16T06:29:34;99010.27;;;17.13;80.27
75549;BME280;64133;56.002;37.208;2023-07-16T06:34:38;99017.95;;;17.08;80.78
75549;BME280;64133;56.002;37.208;2023-07-16T06:39:43;99021.14;;;17.49;79.49
75549;BME280;64133;56.002;37.208;2023-07-16T06:44:48;99015.99;;;18.08;78.85
75549;BME280;64133;56.002;37.208;2023-07-16T06:49:53;99009.64;;;18.69;76.16
75549;BME280;64133;56.002;37.208;2023-07-16T06:54:58;99006.86;;;19.02;75.61
75549;BME280;64133;56.002;37.208;2023-07-16T07:00:03;99005.73;;;19.54;73.75
75549;BME280;64133;56.002;37.208;2023-07-16T07:05:09;99005.99;;;19.27;73.75
75549;BME280;64133;56.002;37.208;2023-07-16T07:10:14;99010.17;;;19.15;74.06
75549;BME280;64133;56.002;37.208;2023-07-16T07:15:19;99012.75;;;18.47;74.77
75549;BME280;64133;56.002;37.208;2023-07-16T07:20:24;99016.80;;;18.72;74.95
75549;BME280;64133;56.002;37.208;2023-07-16T07:25:28;99017.62;;;19.20;73.66
75549;BME280;64133;56.002;37.208;2023-07-16T07:30:33;99019.80;;;20.30;71.26
75549;BME280;64133;56.002;37.208;2023-07-16T07:35:38;99021.95;;;19.31;71.61
75549;BME280;64133;56.002;37.208;2023-07-16T07:40:44;99013.73;;;19.01;72.18
75549;BME280;64133;56.002;37.208;2023-07-16T07:45:52;99012.89;;;19.97;70.86
75549;BME280;64133;56.002;37.208;2023-07-16T07:50:57;99016.25;;;19.77;70.18
75549;BME280;64133;56.002;37.208;2023-07-16T07:56:02;99021.89;;;19.57;70.56
75549;BME280;64133;56.002;37.208;2023-07-16T08:01:07;99031.40;;;19.81;69.93
75549;BME280;64133;56.002;37.208;2023-07-16T08:06:12;99029.91;;;20.17;69.25
75549;BME280;64133;56.002;37.208;2023-07-16T08:11:17;99024.85;;;20.01;69.10
75549;BME280;64133;56.002;37.208;2023-07-16T08:16:22;99027.09;;;20.25;67.92
75549;BME280;64133;56.002;37.208;2023-07-16T08:21:26;99024.69;;;20.54;66.49
75549;BME280;64133;56.002;37.208;2023-07-16T08:26:37;99021.83;;;20.11;68.54
75549;BME280;64133;56.002;37.208;2023-07-16T08:31:51;99028.34;;;20.29;68.27
75549;BME280;64133;56.002;37.208;2023-07-16T08:36:56;99033.09;;;19.56;68.84
75549;BME280;64133;56.002;37.208;2023-07-16T08:42:01;99033.08;;;19.46;70.02
75549;BME280;64133;56.002;37.208;2023-07-16T08:47:06;99022.27;;;20.31;67.09
75549;BME280;64133;56.002;37.208;2023-07-16T08:52:11;99027.52;;;20.46;67.29
75549;BME280;64133;56.002;37.208;2023-07-16T08:57:16;99029.77;;;20.25;66.92
75549;BME280;64133;56.002;37.208;2023-07-16T09:02:21;99024.38;;;19.91;67.83
75549;BME280;64133;56.002;37.208;2023-07-16T09:07:26;99016.25;;;19.77;67.74
75549;BME280;64133;56.002;37.208;2023-07-16T09:12:30;99021.86;;;20.87;65.11
75549;BME280;64133;56.002;37.208;2023-07-16T09:17:35;99020.94;;;21.27;63.76
75549;BME280;64133;56.002;37.208;2023-07-16T09:22:40;99009.98;;;21.93;62.85
75549;BME280;64133;56.002;37.208;2023-07-16T09:27:47;99023.80;;;20.82;64.60
75549;BME280;64133;56.002;37.208;2023-07-16T09:32:49;99026.80;;;20.14;65.73
75549;BME280;64133;56.002;37.208;2023-07-16T09:37:54;99019.45;;;21.49;62.23
75549;BME280;64133;56.002;37.208;2023-07-16T09:42:59;99028.56;;;22.21;59.62
75549;BME280;64133;56.002;37.208;2023-07-16T09:48:05;99012.34;;;22.12;60.87
75549;BME280;64133;56.002;37.208;2023-07-16T09:53:09;99026.11;;;20.98;61.80
75549;BME280;64133;56.002;37.208;2023-07-16T09:58:14;99021.11;;;21.43;62.45
75549;BME280;64133;56.002;37.208;2023-07-16T10:03:19;99023.40;;;22.84;58.81
75549;BME280;64133;56.002;37.208;2023-07-16T10:08:24;99028.60;;;21.00;60.69
75549;BME280;64133;56.002;37.208;2023-07-16T10:13:29;99015.64;;;22.33;58.20
75549;BME280;64133;56.002;37.208;2023-07-16T10:18:35;99004.64;;;23.38;56.63
75549;BME280;64133;56.002;37.208;2023-07-16T10:23:43;99018.20;;;22.24;57.66
75549;BME280;64133;56.002;37.208;2023-07-16T10:28:47;99031.67;;;20.97;61.04
75549;BME280;64133;56.002;37.208;2023-07-16T10:34:01;99024.12;;;21.51;60.38
75549;BME280;64133;56.002;37.208;2023-07-16T10:39:08;99021.12;;;22.81;57.21
75549;BME280;64133;56.002;37.208;2023-07-16T10:44:14;99014.81;;;23.61;55.60
75549;BME280;64133;56.002;37.208;2023-07-16T10:49:28;99023.01;;;23.41;54.75
75549;BME280;64133;56.002;37.208;2023-07-16T10:54:34;99023.38;;;22.68;54.54
75549;BME280;64133;56.002;37.208;2023-07-16T10:59:39;99025.90;;;21.30;57.19
75549;BME280;64133;56.002;37.208;2023-07-16T11:04:45;99006.36;;;22.81;54.89
75549;BME280;64133;56.002;37.208;2023-07-16T11:09:50;99005.86;;;23.42;53.84
75549;BME280;64133;56.002;37.208;2023-07-16T11:14:54;99000.17;;;23.73;53.25
75549;BME280;64133;56.002;37.208;2023-07-16T11:19:59;99010.23;;;24.02;51.46
75549;BME280;64133;56.002;37.208;2023-07-16T11:25:04;99009.26;;;22.57;53.67
75549;BME280;64133;56.002;37.208;2023-07-16T11:30:10;99013.60;;;23.57;52.15
75549;BME280;64133;56.002;37.208;2023-07-16T11:35:17;99009.79;;;23.71;48.93
75549;BME280;64133;56.002;37.208;2023-07-16T11:46:01;99013.97;;;22.97;50.65
75549;BME280;64133;56.002;37.208;2023-07-16T11:51:06;99021.08;;;23.39;52.09
75549;BME280;64133;56.002;37.208;2023-07-16T11:56:11;99026.52;;;23.57;49.75
75549;BME280;64133;56.002;37.208;2023-07-16T12:01:15;99021.16;;;24.42;48.93
75549;BME280;64133;56.002;37.208;2023-07-16T12:06:20;99022.01;;;24.08;48.21
75549;BME280;64133;56.002;37.208;2023-07-16T12:11:25;99020.02;;;24.31;48.26
75549;BME280;64133;56.002;37.208;2023-07-16T12:16:30;99011.77;;;25.18;46.77
75549;BME280;64133;56.002;37.208;2023-07-16T12:21:38;98996.26;;;24.65;47.51
75549;BME280;64133;56.002;37.208;2023-07-16T12:26:42;98992.31;;;24.15;48.50
75549;BME280;64133;56.002;37.208;2023-07-16T12:31:47;99001.53;;;24.16;48.36
75549;BME280;64133;56.002;37.208;2023-07-16T12:36:52;99010.17;;;24.62;46.52
75549;BME280;64133;56.002;37.208;2023-07-16T12:42:00;99000.34;;;24.21;47.12
75549;BME280;64133;56.002;37.208;2023-07-16T12:47:02;99010.06;;;23.47;48.92
75549;BME280;64133;56.002;37.208;2023-07-16T12:52:08;99014.42;;;23.42;48.81
75549;BME280;64133;56.002;37.208;2023-07-16T12:57:13;99006.81;;;24.57;46.79
75549;BME280;64133;56.002;37.208;2023-07-16T13:02:17;99009.56;;;23.57;48.31
75549;BME280;64133;56.002;37.208;2023-07-16T13:07:22;99006.92;;;24.16;47.03
75549;BME280;64133;56.002;37.208;2023-07-16T13:12:27;99005.94;;;23.86;46.92
75549;BME280;64133;56.002;37.208;2023-07-16T13:17:32;99008.84;;;22.60;49.22
75549;BME280;64133;56.002;37.208;2023-07-16T13:22:36;99006.09;;;22.44;49.87
75549;BME280;64133;56.002;37.208;2023-07-16T13:27:41;99010.70;;;22.60;50.27
75549;BME280;64133;56.002;37.208;2023-07-16T13:32:46;99020.36;;;22.67;50.18
75549;BME280;64133;56.002;37.208;2023-07-16T13:37:51;99019.02;;;22.67;50.46
75549;BME280;64133;56.002;37.208;2023-07-16T13:42:56;99022.31;;;22.47;50.83
75549;BME280;64133;56.002;37.208;2023-07-16T13:48:00;99018.63;;;22.01;51.73
75549;BME280;64133;56.002;37.208;2023-07-16T13:53:05;99035.57;;;21.95;51.56
75549;BME280;64133;56.002;37.208;2023-07-16T13:58:14;99015.76;;;21.96;51.88
75549;BME280;64133;56.002;37.208;2023-07-16T14:03:19;99012.23;;;22.16;51.96
75549;BME280;64133;56.002;37.208;2023-07-16T14:08:24;99019.91;;;22.12;52.11
75549;BME280;64133;56.002;37.208;2023-07-16T14:13:29;99019.06;;;22.18;51.99
75549;BME280;64133;56.002;37.208;2023-07-16T14:18:34;99011.61;;;22.33;51.91
75549;BME280;64133;56.002;37.208;2023-07-16T14:23:42;99017.50;;;22.20;52.08
75549;BME280;64133;56.002;37.208;2023-07-16T14:28:47;99003.48;;;22.53;51.87
75549;BME280;64133;56.002;37.208;2023-07-16T14:33:52;99008.44;;;22.50;51.83
75549;BME280;64133;56.002;37.208;2023-07-16T14:38:56;99010.34;;;24.14;49.24
75549;BME280;64133;56.002;37.208;2023-07-16T14:44:01;99008.02;;;24.52;48.64
75549;BME280;64133;56.002;37.208;2023-07-16T14:49:06;99009.61;;;23.82;49.47
75549;BME280;64133;56.002;37.208;2023-07-16T14:54:11;99008.08;;;23.77;49.61
75549;BME280;64133;56.002;37.208;2023-07-16T14:59:15;99019.83;;;23.73;49.76
75549;BME280;64133;56.002;37.208;2023-07-16T15:04:20;99027.20;;;24.92;48.00
75549;BME280;64133;56.002;37.208;2023-07-16T15:09:25;99024.73;;;25.00;48.23
75549;BME280;64133;56.002;37.208;2023-07-16T15:14:30;99018.84;;;25.63;47.75
75549;BME280;64133;56.002;37.208;2023-07-16T15:19:35;99022.44;;;25.99;47.10
75549;BME280;64133;56.002;37.208;2023-07-16T15:24:40;99029.67;;;25.75;47.78
75549;BME280;64133;56.002;37.208;2023-07-16T15:29:44;99038.92;;;25.67;46.68
75549;BME280;64133;56.002;37.208;2023-07-16T15:34:49;99030.52;;;25.24;47.16
75549;BME280;64133;56.002;37.208;2023-07-16T15:39:54;99024.66;;;25.57;46.41
75549;BME280;64133;56.002;37.208;2023-07-16T15:44:59;99026.33;;;26.90;44.86
75549;BME280;64133;56.002;37.208;2023-07-16T15:50:04;99028.09;;;26.82;44.69
75549;BME280;64133;56.002;37.208;2023-07-16T15:55:09;99028.04;;;25.32;44.67
75549;BME280;64133;56.002;37.208;2023-07-16T16:00:14;99040.53;;;24.60;45.81
75549;BME280;64133;56.002;37.208;2023-07-16T16:05:20;99041.05;;;23.50;46.73
75549;BME280;64133;56.002;37.208;2023-07-16T16:10:25;99040.30;;;25.37;44.20
75549;BME280;64133;56.002;37.208;2023-07-16T16:15:30;99039.56;;;24.72;44.44
75549;BME280;64133;56.002;37.208;2023-07-16T16:20:34;99045.67;;;23.74;45.49
75549;BME280;64133;56.002;37.208;2023-07-16T16:25:39;99049.19;;;22.33;48.22
75549;BME280;64133;56.002;37.208;2023-07-16T16:30:44;99040.20;;;22.30;48.43
75549;BME280;64133;56.002;37.208;2023-07-16T16:36:08;99042.00;;;22.50;48.32
75549;BME280;64133;56.002;37.208;2023-07-16T16:41:11;99035.58;;;21.82;49.80
75549;BME280;64133;56.002;37.208;2023-07-16T16:46:18;99034.32;;;21.84;50.09
75549;BME280;64133;56.002;37.208;2023-07-16T16:51:23;99041.03;;;22.04;49.76
75549;BME280;64133;56.002;37.208;2023-07-16T16:56:33;99038.25;;;22.08;50.10
75549;BME280;64133;56.002;37.208;2023-07-16T17:01:38;99037.20;;;21.90;50.43
75549;BME280;64133;56.002;37.208;2023-07-16T17:06:46;99038.52;;;21.50;51.43
75549;BME280;64133;56.002;37.208;2023-07-16T17:11:49;99037.92;;;21.48;51.82
75549;BME280;64133;56.002;37.208;2023-07-16T17:16:55;99039.66;;;21.38;53.42
75549;BME280;64133;56.002;37.208;2023-07-16T17:21:59;99040.17;;;21.44;52.40
75549;BME280;64133;56.002;37.208;2023-07-16T17:27:05;99038.75;;;21.24;53.04
75549;BME280;64133;56.002;37.208;2023-07-16T17:32:10;99042.03;;;21.13;53.50
75549;BME280;64133;56.002;37.208;2023-07-16T17:37:15;99054.73;;;20.91;54.24
75549;BME280;64133;56.002;37.208;2023-07-16T17:42:19;99054.09;;;20.89;54.83
75549;BME280;64133;56.002;37.208;2023-07-16T17:47:24;99048.83;;;20.61;55.57
75549;BME280;64133;56.002;37.208;2023-07-16T17:52:29;99053.04;;;20.31;56.65
75549;BME280;64133;56.002;37.208;2023-07-16T17:57:34;99059.27;;;20.11;57.41
75549;BME280;64133;56.002;37.208;2023-07-16T18:02:38;99061.73;;;19.84;58.16
75549;BME280;64133;56.002;37.208;2023-07-16T18:07:43;99063.27;;;19.72;58.69
75549;BME280;64133;56.002;37.208;2023-07-16T18:12:48;99067.83;;;19.35;59.87
75549;BME280;64133;56.002;37.208;2023-07-16T18:17:53;99069.81;;;19.48;60.02
75549;BME280;64133;56.002;37.208;2023-07-16T18:22:57;99075.49;;;19.23;60.78
75549;BME280;64133;56.002;37.208;2023-07-16T18:28:02;99074.92;;;19.17;61.02
75549;BME280;64133;56.002;37.208;2023-07-16T18:33:07;99066.66;;;19.12;61.70
75549;BME280;64133;56.002;37.208;2023-07-16T18:38:12;99069.63;;;18.88;62.38
75549;BME280;64133;56.002;37.208;2023-07-16T18:43:16;99070.20;;;18.83;62.93
75549;BME280;64133;56.002;37.208;2023-07-16T18:48:21;99075.75;;;18.48;63.95
75549;BME280;64133;56.002;37.208;2023-07-16T18:53:26;99074.50;;;18.25;64.71
75549;BME280;64133;56.002;37.208;2023-07-16T18:58:31;99070.30;;;18.41;64.63
75549;BME280;64133;56.002;37.208;2023-07-16T19:03:35;99068.61;;;18.44;64.29
75549;BME280;64133;56.002;37.208;2023-07-16T19:08:40;99069.16;;;18.25;65.15
75549;BME280;64133;56.002;37.208;2023-07-16T19:13:45;99066.88;;;18.03;65.91
75549;BME280;64133;56.002;37.208;2023-07-16T19:18:49;99077.23;;;17.98;66.13
75549;BME280;64133;56.002;37.208;2023-07-16T19:23:54;99073.77;;;17.70;66.62
75549;BME280;64133;56.002;37.208;2023-07-16T19:28:59;99067.77;;;17.72;66.90
75549;BME280;64133;56.002;37.208;2023-07-16T19:34:04;99066.59;;;17.71;66.97
75549;BME280;64133;56.002;37.208;2023-07-16T19:39:12;99062.28;;;17.70;66.99
75549;BME280;64133;56.002;37.208;2023-07-16T19:44:16;99052.86;;;17.63;67.23
75549;BME280;64133;56.002;37.208;2023-07-16T19:49:23;99062.69;;;17.58;67.63
75549;BME280;64133;56.002;37.208;2023-07-16T19:54:28;99054.31;;;17.47;67.67
75549;BME280;64133;56.002;37.208;2023-07-16T19:59:33;99057.28;;;17.25;68.29
75549;BME280;64133;56.002;37.208;2023-07-16T20:04:37;99060.91;;;17.01;69.09
75549;BME280;64133;56.002;37.208;2023-07-16T20:09:42;99064.63;;;16.88;69.66
75549;BME280;64133;56.002;37.208;2023-07-16T20:14:49;99066.49;;;16.79;69.90
75549;BME280;64133;56.002;37.208;2023-07-16T20:19:54;99076.31;;;16.78;69.96
75549;BME280;64133;56.002;37.208;2023-07-16T20:24:59;99074.33;;;16.68;70.15
75549;BME280;64133;56.002;37.208;2023-07-16T20:30:04;99077.67;;;16.58;70.49
75549;BME280;64133;56.002;37.208;2023-07-16T20:35:10;99075.08;;;16.46;70.84
75549;BME280;64133;56.002;37.208;2023-07-16T20:40:18;99051.71;;;16.13;71.38
75549;BME280;64133;56.002;37.208;2023-07-16T20:45:24;99086.37;;;16.40;71.49
75549;BME280;64133;56.002;37.208;2023-07-16T20:50:28;99076.05;;;16.45;71.19
75549;BME280;64133;56.002;37.208;2023-07-16T20:55:33;99076.05;;;16.45;71.22
75549;BME280;64133;56.002;37.208;2023-07-16T21:00:38;99076.25;;;16.35;71.36
75549;BME280;64133;56.002;37.208;2023-07-16T21:05:43;99070.30;;;16.25;71.72
75549;BME280;64133;56.002;37.208;2023-07-16T21:10:48;99068.66;;;16.20;71.93
75549;BME280;64133;56.002;37.208;2023-07-16T21:15:56;99072.78;;;16.22;72.03
75549;BME280;64133;56.002;37.208;2023-07-16T21:21:00;99077.45;;;16.24;71.98
75549;BME280;64133;56.002;37.208;2023-07-16T21:26:08;99074.29;;;16.21;72.09
75549;BME280;64133;56.002;37.208;2023-07-16T21:31:13;99074.13;;;16.14;72.25
75549;BME280;64133;56.002;37.208;2023-07-16T21:36:18;99079.94;;;16.09;72.43
75549;BME280;64133;56.002;37.208;2023-07-16T21:41:25;99075.80;;;16.11;72.49
75549;BME280;64133;56.002;37.208;2023-07-16T21:46:30;99070.83;;;15.96;72.88
75549;BME280;64133;56.002;37.208;2023-07-16T21:51:34;99070.82;;;16.04;72.97
75549;BME280;64133;56.002;37.208;2023-07-16T21:56:39;99070.83;;;15.79;73.43
75549;BME280;64133;56.002;37.208;2023-07-16T22:01:44;99067.84;;;15.74;73.89
75549;BME280;64133;56.002;37.208;2023-07-16T22:06:49;99070.82;;;15.71;73.96
75549;BME280;64133;56.002;37.208;2023-07-16T22:11:54;99075.16;;;15.64;74.16
75549;BME280;64133;56.002;37.208;2023-07-16T22:16:58;99077.95;;;15.58;74.54
75549;BME280;64133;56.002;37.208;2023-07-16T22:22:03;99069.80;;;15.52;74.89
75549;BME280;64133;56.002;37.208;2023-07-16T22:27:08;99075.62;;;15.59;74.72
75549;BME280;64133;56.002;37.208;2023-07-16T22:32:12;99074.27;;;15.43;74.98
75549;BME280;64133;56.002;37.208;2023-07-16T22:37:17;99077.41;;;15.34;75.40
75549;BME280;64133;56.002;37.208;2023-07-16T22:42:22;99082.03;;;15.37;75.40
75549;BME280;64133;56.002;37.208;2023-07-16T22:47:27;99081.70;;;15.31;75.65
75549;BME280;64133;56.002;37.208;2023-07-16T22:52:31;99081.56;;;15.33;75.68
75549;BME280;64133;56.002;37.208;2023-07-16T22:57:36;99086.02;;;15.24;75.92
75549;BME280;64133;56.002;37.208;2023-07-16T23:02:41;99073.73;;;15.27;76.08
75549;BME280;64133;56.002;37.208;2023-07-16T23:07:45;99071.75;;;15.25;76.12
75549;BME280;64133;56.002;37.208;2023-07-16T23:12:50;99074.88;;;15.17;76.41
75549;BME280;64133;56.002;37.208;2023-07-16T23:17:55;99078.17;;;15.15;76.54
75549;BME280;64133;56.002;37.208;2023-07-16T23:23:00;99076.38;;;15.15;76.64
75549;BME280;64133;56.002;37.208;2023-07-16T23:28:05;99083.48;;;15.15;76.70
75549;BME280;64133;56.002;37.208;2023-07-16T23:33:10;99082.50;;;15.12;76.84
75549;BME280;64133;56.002;37.208;2023-07-16T23:38:25;99086.14;;;15.15;76.89
75549;BME280;64133;56.002;37.208;2023-07-16T23:43:32;99092.30;;;15.15;76.90
75549;BME280;64133;56.002;37.208;2023-07-16T23:48:37;99087.31;;;15.12;76.82
75549;BME280;64133;56.002;37.208;2023-07-16T23:53:42;99087.47;;;15.06;76.87
75549;BME280;64133;56.002;37.208;2023-07-16T23:58:48;99082.94;;;14.95;77.11
